createdAt,value
2022-10-31T00:00:56.415Z,3.90
2022-10-31T00:03:25.437Z,3.90
2022-10-31T00:05:53.743Z,4.10
2022-10-31T00:08:22.817Z,4.20
2022-10-31T00:10:50.615Z,4.50
2022-10-31T00:15:51.677Z,4.40
2022-10-31T00:18:19.755Z,4.40
2022-10-31T00:20:47.505Z,4.30
2022-10-31T00:23:18.371Z,4.20
2022-10-31T00:25:55.629Z,5.00
2022-10-31T00:28:23.617Z,4.40
2022-10-31T00:31:03.354Z,4.60
2022-10-31T00:33:32.636Z,4.50
2022-10-31T00:36:02.268Z,3.70
2022-10-31T00:38:43.954Z,3.90
2022-10-31T00:41:13.338Z,3.90
2022-10-31T00:43:52.310Z,4.10
2022-10-31T00:46:20.279Z,3.80
2022-10-31T00:48:48.260Z,4.30
2022-10-31T00:51:32.317Z,4.20
2022-10-31T00:54:03.289Z,4.30
2022-10-31T00:56:31.255Z,4.10
2022-10-31T00:59:14.341Z,4.40
2022-10-31T01:01:43.069Z,4.40
2022-10-31T01:04:11.563Z,4.10
2022-10-31T01:09:22.020Z,4.00
2022-10-31T01:11:49.482Z,3.90
2022-10-31T01:14:20.989Z,3.60
2022-10-31T01:16:49.500Z,4.30
2022-10-31T01:19:44.542Z,4.00
2022-10-31T01:22:12.600Z,4.20
2022-10-31T01:24:40.591Z,4.30
2022-10-31T01:27:08.357Z,3.80
2022-10-31T01:29:39.235Z,4.40
2022-10-31T01:32:07.464Z,6.50
2022-10-31T01:34:36.136Z,4.00
2022-10-31T01:37:14.719Z,3.90
2022-10-31T01:39:50.646Z,4.00
2022-10-31T01:42:22.469Z,4.10
2022-10-31T01:44:54.724Z,3.80
2022-10-31T01:47:45.307Z,4.50
2022-10-31T01:50:41.249Z,4.10
2022-10-31T01:53:12.830Z,4.40
2022-10-31T01:55:47.922Z,3.70
2022-10-31T01:58:25.241Z,4.50
2022-10-31T02:01:04.825Z,4.20
2022-10-31T02:03:36.129Z,4.00
2022-10-31T02:06:15.294Z,4.10
2022-10-31T02:08:47.891Z,3.70
2022-10-31T02:11:24.999Z,3.80
2022-10-31T02:13:54.586Z,3.70
2022-10-31T02:19:11.311Z,3.80
2022-10-31T02:22:20.318Z,3.60
2022-10-31T02:25:20.049Z,3.90
2022-10-31T02:28:25.397Z,4.30
2022-10-31T02:31:18.291Z,3.80
2022-10-31T02:33:59.751Z,4.00
2022-10-31T02:36:55.777Z,4.00
2022-10-31T02:39:28.493Z,4.00
2022-10-31T02:42:33.240Z,3.20
2022-10-31T02:45:21.871Z,4.30
2022-10-31T02:47:57.794Z,3.60
2022-10-31T02:50:34.520Z,3.40
2022-10-31T02:53:07.104Z,4.00
2022-10-31T02:55:39.672Z,4.10
2022-10-31T02:58:13.644Z,4.20
2022-10-31T03:01:07.002Z,4.60
2022-10-31T03:03:53.161Z,4.00
2022-10-31T03:06:45.674Z,4.00
2022-10-31T03:09:44.230Z,4.30
2022-10-31T03:12:27.057Z,4.00
2022-10-31T03:15:28.741Z,4.30
2022-10-31T03:18:15.229Z,3.80
2022-10-31T03:20:52.700Z,3.90
2022-10-31T03:23:24.674Z,3.50
2022-10-31T03:25:55.965Z,3.80
2022-10-31T03:28:33.202Z,3.70
2022-10-31T03:34:00.451Z,4.00
2022-10-31T03:36:37.026Z,3.80
2022-10-31T03:39:26.776Z,4.10
2022-10-31T03:42:35.353Z,4.20
2022-10-31T03:45:39.434Z,3.90
2022-10-31T03:48:15.641Z,3.90
2022-10-31T03:51:01.937Z,3.90
2022-10-31T03:53:51.240Z,3.50
2022-10-31T03:56:35.792Z,3.60
2022-10-31T03:59:41.643Z,3.80
2022-10-31T04:02:16.398Z,4.00
2022-10-31T04:04:47.144Z,3.80
2022-10-31T04:07:16.833Z,4.00
2022-10-31T04:09:48.801Z,4.10
2022-10-31T04:12:43.917Z,3.90
2022-10-31T04:15:26.133Z,4.20
2022-10-31T04:17:57.760Z,4.00
2022-10-31T04:20:39.078Z,4.30
2022-10-31T04:23:24.880Z,4.60
2022-10-31T04:25:56.255Z,3.70
2022-10-31T04:28:27.625Z,3.70
2022-10-31T04:30:58.839Z,3.50
2022-10-31T04:33:27.143Z,4.10
2022-10-31T04:35:55.076Z,3.70
2022-10-31T04:38:23.808Z,3.50
2022-10-31T04:40:52.035Z,3.80
2022-10-31T04:43:40.321Z,4.00
2022-10-31T04:46:11.779Z,4.00
2022-10-31T04:48:39.991Z,3.70
2022-10-31T04:51:07.799Z,4.40
2022-10-31T04:53:41.538Z,3.90
2022-10-31T04:56:32.904Z,4.50
2022-10-31T04:59:04.911Z,4.10
2022-10-31T05:01:43.890Z,3.70
2022-10-31T05:04:12.516Z,3.50
2022-10-31T05:06:40.430Z,3.90
2022-10-31T05:09:10.215Z,3.60
2022-10-31T05:11:39.556Z,3.80
2022-10-31T05:14:26.708Z,3.60
2022-10-31T05:17:15.650Z,3.80
2022-10-31T05:20:09.416Z,4.00
2022-10-31T05:23:09.116Z,3.60
2022-10-31T05:25:41.449Z,4.10
2022-10-31T05:28:10.966Z,4.20
2022-10-31T05:30:39.558Z,4.10
2022-10-31T05:33:11.899Z,3.70
2022-10-31T05:36:13.263Z,3.70
2022-10-31T05:38:59.126Z,3.10
2022-10-31T05:41:31.996Z,3.40
2022-10-31T05:44:17.986Z,3.60
2022-10-31T05:47:05.313Z,3.80
2022-10-31T05:49:56.947Z,4.10
2022-10-31T05:52:55.684Z,4.20
2022-10-31T05:55:32.757Z,3.50
2022-10-31T05:58:08.669Z,3.70
2022-10-31T06:00:37.216Z,4.90
2022-10-31T06:03:16.782Z,4.80
2022-10-31T06:06:17.503Z,5.10
2022-10-31T06:08:47.347Z,4.70
2022-10-31T06:11:22.878Z,4.90
2022-10-31T06:14:07.614Z,4.80
2022-10-31T06:17:05.224Z,4.90
2022-10-31T06:19:57.534Z,4.90
2022-10-31T06:22:31.746Z,5.30
2022-10-31T06:25:00.532Z,4.80
2022-10-31T06:27:38.320Z,5.10
2022-10-31T06:30:12.925Z,4.70
2022-10-31T06:32:40.762Z,5.10
2022-10-31T06:35:11.459Z,4.10
2022-10-31T06:37:46.859Z,4.30
2022-10-31T06:40:41.143Z,4.40
2022-10-31T06:43:28.101Z,3.70
2022-10-31T06:46:15.272Z,4.20
2022-10-31T06:49:03.420Z,4.50
2022-10-31T06:51:51.443Z,4.20
2022-10-31T06:54:19.147Z,3.90
2022-10-31T06:56:51.915Z,4.00
2022-10-31T06:59:19.950Z,4.30
2022-10-31T07:02:05.951Z,4.50
2022-10-31T07:04:34.111Z,4.20
2022-10-31T07:07:05.197Z,3.60
2022-10-31T07:09:41.392Z,4.00
2022-10-31T07:12:14.831Z,3.80
2022-10-31T07:14:47.282Z,3.60
2022-10-31T07:17:15.760Z,4.00
2022-10-31T07:19:45.453Z,4.00
2022-10-31T07:22:17.277Z,4.30
2022-10-31T07:24:46.035Z,4.10
2022-10-31T07:30:02.564Z,4.40
2022-10-31T07:32:47.174Z,4.00
2022-10-31T07:35:26.728Z,4.10
2022-10-31T07:38:18.643Z,4.40
2022-10-31T07:40:53.333Z,3.70
2022-10-31T07:43:23.996Z,3.40
2022-10-31T07:46:12.750Z,3.80
2022-10-31T07:49:32.711Z,3.80
2022-10-31T07:52:19.912Z,3.60
2022-10-31T07:54:55.916Z,3.60
2022-10-31T07:57:40.095Z,3.90
2022-10-31T08:00:11.018Z,4.20
2022-10-31T08:02:44.113Z,3.90
2022-10-31T08:08:32.257Z,3.60
2022-10-31T08:11:03.105Z,4.00
2022-10-31T08:13:37.835Z,3.50
2022-10-31T08:16:10.147Z,3.30
2022-10-31T08:18:44.103Z,3.70
2022-10-31T08:21:14.435Z,3.10
2022-10-31T08:23:43.444Z,3.70
2022-10-31T08:26:12.241Z,3.60
2022-10-31T08:28:40.181Z,3.60
2022-10-31T08:31:11.543Z,3.90
2022-10-31T08:36:50.604Z,3.60
2022-10-31T08:39:28.077Z,3.90
2022-10-31T08:44:47.250Z,3.00
2022-10-31T08:47:20.680Z,3.20
2022-10-31T08:49:49.378Z,3.20
2022-10-31T08:52:19.450Z,3.20
2022-10-31T08:54:47.716Z,3.60
2022-10-31T08:57:33.939Z,3.20
2022-10-31T09:00:03.703Z,3.60
2022-10-31T09:02:50.244Z,3.30
2022-10-31T09:05:20.691Z,3.70
2022-10-31T09:08:05.917Z,3.70
2022-10-31T09:10:42.650Z,3.70
2022-10-31T09:13:16.078Z,3.60
2022-10-31T09:16:03.155Z,3.30
2022-10-31T09:18:33.457Z,3.10
2022-10-31T09:21:02.363Z,3.30
2022-10-31T09:23:32.147Z,3.30
2022-10-31T09:26:02.998Z,3.10
2022-10-31T09:28:49.836Z,3.40
2022-10-31T09:31:21.956Z,3.20
2022-10-31T09:34:10.838Z,3.60
2022-10-31T09:36:41.612Z,3.30
2022-10-31T09:39:33.145Z,3.30
2022-10-31T09:42:47.771Z,3.30
2022-10-31T09:45:35.599Z,2.70
2022-10-31T09:48:41.767Z,3.30
2022-10-31T09:51:48.021Z,3.20
2022-10-31T09:54:43.146Z,3.20
2022-10-31T09:57:25.835Z,3.00
2022-10-31T10:00:08.055Z,3.40
2022-10-31T10:03:05.302Z,3.60
2022-10-31T10:05:59.778Z,3.80
2022-10-31T10:08:39.790Z,3.70
2022-10-31T10:11:50.208Z,3.20
2022-10-31T10:14:21.803Z,2.70
2022-10-31T10:16:55.683Z,3.10
2022-10-31T10:19:56.538Z,2.90
2022-10-31T10:23:04.245Z,2.90
2022-10-31T10:25:42.158Z,3.20
2022-10-31T10:28:21.690Z,3.00
2022-10-31T10:30:56.649Z,3.30
2022-10-31T10:33:35.133Z,3.20
2022-10-31T10:36:13.772Z,3.00
2022-10-31T10:38:56.043Z,3.40
2022-10-31T10:41:27.430Z,3.10
2022-10-31T10:44:01.868Z,3.30
2022-10-31T10:47:12.633Z,3.70
2022-10-31T10:49:52.335Z,2.70
2022-10-31T10:52:42.166Z,2.70
2022-10-31T10:55:28.112Z,2.70
2022-10-31T10:58:05.499Z,3.10
2022-10-31T11:03:37.798Z,3.10
2022-10-31T11:06:05.908Z,3.00
2022-10-31T11:08:40.108Z,2.90
2022-10-31T11:11:19.900Z,3.10
2022-10-31T11:13:50.299Z,3.50
2022-10-31T11:16:39.603Z,3.20
2022-10-31T11:19:30.707Z,2.80
2022-10-31T11:22:09.307Z,2.90
2022-10-31T11:24:42.677Z,2.70
2022-10-31T11:27:18.607Z,3.00
2022-10-31T11:29:46.648Z,2.80
2022-10-31T11:32:49.602Z,3.10
2022-10-31T11:35:23.543Z,3.10
2022-10-31T11:37:55.668Z,2.70
2022-10-31T11:40:29.705Z,3.00
2022-10-31T11:43:00.822Z,2.90
2022-10-31T11:45:39.620Z,2.70
2022-10-31T11:48:19.984Z,3.00
2022-10-31T11:50:59.370Z,3.30
2022-10-31T11:53:39.003Z,2.60
2022-10-31T11:56:16.841Z,2.50
2022-10-31T11:58:44.632Z,2.50
2022-10-31T12:01:33.409Z,2.80
2022-10-31T12:04:09.706Z,2.80
2022-10-31T12:06:48.556Z,2.70
2022-10-31T12:09:43.744Z,2.70
2022-10-31T12:12:41.333Z,2.50
2022-10-31T12:15:38.129Z,2.90
2022-10-31T12:18:40.978Z,3.50
2022-10-31T12:21:39.767Z,2.90
2022-10-31T12:24:51.931Z,2.70
2022-10-31T12:27:58.581Z,3.00
2022-10-31T12:30:41.192Z,2.40
2022-10-31T12:33:29.403Z,2.40
2022-10-31T12:36:26.183Z,2.60
2022-10-31T12:38:59.941Z,2.60
2022-10-31T12:41:45.835Z,2.50
2022-10-31T12:44:49.509Z,3.10
2022-10-31T12:47:46.643Z,3.10
2022-10-31T12:50:36.327Z,2.80
2022-10-31T12:53:21.579Z,2.90
2022-10-31T12:56:23.604Z,2.70
2022-10-31T12:58:58.726Z,3.10
2022-10-31T13:01:38.541Z,2.70
2022-10-31T13:04:43.720Z,2.60
2022-10-31T13:07:45.751Z,2.50
2022-10-31T13:10:40.290Z,2.50
2022-10-31T13:13:46.342Z,2.70
2022-10-31T13:16:36.380Z,3.30
2022-10-31T13:19:27.685Z,4.20
2022-10-31T13:22:14.528Z,4.40
2022-10-31T13:25:05.236Z,3.80
2022-10-31T13:27:55.193Z,4.70
2022-10-31T13:30:28.767Z,3.90
2022-10-31T13:32:56.857Z,3.20
2022-10-31T13:35:34.801Z,3.70
2022-10-31T13:38:32.321Z,3.60
2022-10-31T13:41:14.852Z,4.00
2022-10-31T13:44:01.181Z,4.10
2022-10-31T13:46:37.676Z,4.00
2022-10-31T13:49:23.481Z,4.10
2022-10-31T13:51:55.230Z,3.80
2022-10-31T13:54:35.248Z,3.90
2022-10-31T13:57:17.867Z,3.20
2022-10-31T13:59:56.557Z,2.90
2022-10-31T14:02:34.146Z,2.60
2022-10-31T14:05:24.055Z,3.10
2022-10-31T14:07:58.440Z,3.30
2022-10-31T14:10:40.034Z,3.20
2022-10-31T14:13:17.000Z,3.20
2022-10-31T14:16:04.668Z,3.20
2022-10-31T14:18:38.233Z,3.40
2022-10-31T14:21:34.611Z,3.00
2022-10-31T14:24:26.799Z,2.80
2022-10-31T14:27:05.692Z,2.80
2022-10-31T14:29:42.927Z,2.80
2022-10-31T14:32:17.850Z,2.80
2022-10-31T14:34:54.592Z,3.20
2022-10-31T14:40:36.342Z,3.30
2022-10-31T14:43:25.467Z,3.20
2022-10-31T14:46:19.311Z,3.10
2022-10-31T14:49:09.293Z,3.00
2022-10-31T14:51:47.980Z,2.70
2022-10-31T14:54:39.048Z,3.00
2022-10-31T14:57:15.989Z,2.80
2022-10-31T14:59:52.624Z,2.90
2022-10-31T15:02:27.365Z,2.90
2022-10-31T15:04:58.315Z,2.70
2022-10-31T15:07:36.531Z,2.70
2022-10-31T15:10:20.501Z,3.10
2022-10-31T15:12:48.628Z,3.20
2022-10-31T15:15:30.698Z,3.00
2022-10-31T15:18:01.395Z,2.80
2022-10-31T15:20:32.204Z,2.80
2022-10-31T15:23:01.940Z,2.80
2022-10-31T15:25:37.487Z,2.70
2022-10-31T15:28:23.020Z,2.90
2022-10-31T15:31:03.172Z,2.80
2022-10-31T15:33:48.328Z,3.10
2022-10-31T15:36:27.292Z,3.10
2022-10-31T15:39:01.560Z,3.10
2022-10-31T15:41:37.185Z,2.80
2022-10-31T15:44:16.107Z,3.70
2022-10-31T15:46:44.738Z,3.00
2022-10-31T15:49:43.025Z,2.50
2022-10-31T15:52:36.810Z,2.80
2022-10-31T15:55:22.550Z,2.80
2022-10-31T16:00:41.790Z,3.10
2022-10-31T16:03:15.719Z,3.10
2022-10-31T16:05:47.469Z,3.30
2022-10-31T16:08:30.633Z,2.70
2022-10-31T16:11:16.243Z,2.90
2022-10-31T16:14:09.420Z,3.40
2022-10-31T16:16:55.875Z,2.40
2022-10-31T16:19:30.249Z,2.70
2022-10-31T16:22:16.389Z,3.10
2022-10-31T16:24:52.928Z,2.90
2022-10-31T16:27:30.302Z,3.00
2022-10-31T16:30:03.147Z,2.60
2022-10-31T16:32:55.783Z,3.40
2022-10-31T16:35:39.027Z,2.70
2022-10-31T16:38:15.017Z,3.00
2022-10-31T16:40:46.739Z,3.20
2022-10-31T16:43:22.265Z,2.60
2022-10-31T16:45:55.413Z,2.70
2022-10-31T16:48:25.074Z,2.60
2022-10-31T16:50:54.924Z,2.50
2022-10-31T16:53:30.428Z,2.80
2022-10-31T16:56:50.465Z,2.80
2022-10-31T16:59:16.077Z,2.60
2022-10-31T17:04:18.765Z,3.00
2022-10-31T17:06:46.655Z,3.00
2022-10-31T17:09:17.489Z,2.70
2022-10-31T17:11:59.503Z,2.90
2022-10-31T17:14:34.474Z,2.90
2022-10-31T17:17:07.914Z,3.00
2022-10-31T17:19:36.438Z,2.50
2022-10-31T17:22:06.576Z,2.30
2022-10-31T17:24:34.473Z,2.70
2022-10-31T17:27:06.596Z,2.60
2022-10-31T17:29:39.394Z,3.00
2022-10-31T17:32:22.595Z,3.00
2022-10-31T17:34:54.800Z,3.10
2022-10-31T17:37:29.590Z,2.60
2022-10-31T17:39:58.611Z,2.80
2022-10-31T17:42:27.333Z,3.20
2022-10-31T17:44:58.283Z,2.30
2022-10-31T17:47:27.877Z,2.50
2022-10-31T17:50:03.289Z,2.50
2022-10-31T17:52:36.673Z,2.50
2022-10-31T17:55:08.165Z,2.40
2022-10-31T17:57:49.498Z,3.10
2022-10-31T18:00:22.762Z,2.70
2022-10-31T18:02:58.868Z,3.60
2022-10-31T18:05:31.361Z,4.70
2022-10-31T18:08:03.796Z,5.50
2022-10-31T18:10:36.955Z,5.00
2022-10-31T18:13:13.270Z,4.90
2022-10-31T18:15:41.908Z,4.90
2022-10-31T18:18:12.605Z,5.40
2022-10-31T18:20:41.721Z,5.60
2022-10-31T18:23:21.390Z,6.40
2022-10-31T18:25:50.512Z,5.50
2022-10-31T18:28:26.201Z,5.30
2022-10-31T18:30:54.124Z,4.80
2022-10-31T18:33:21.874Z,5.10
2022-10-31T18:35:54.706Z,5.30
2022-10-31T18:38:33.033Z,5.30
2022-10-31T18:43:57.092Z,5.20
2022-10-31T18:46:30.323Z,5.00
2022-10-31T18:48:59.203Z,5.80
2022-10-31T18:51:35.815Z,5.60
2022-10-31T18:54:06.452Z,5.60
2022-10-31T18:59:31.344Z,6.80
2022-10-31T19:02:00.467Z,7.20
2022-10-31T19:04:35.152Z,7.70
2022-10-31T19:07:04.616Z,7.80
2022-10-31T19:09:35.913Z,6.80
2022-10-31T19:15:22.410Z,7.10
2022-10-31T19:18:02.372Z,7.00
2022-10-31T19:20:32.665Z,7.50
2022-10-31T19:23:01.116Z,5.90
2022-10-31T19:25:29.129Z,5.70
2022-10-31T19:31:00.939Z,5.30
2022-10-31T19:33:34.997Z,5.30
2022-10-31T19:36:09.310Z,5.20
2022-10-31T19:38:43.553Z,4.80
2022-10-31T19:41:23.012Z,5.00
2022-10-31T19:44:00.327Z,5.30
2022-10-31T19:49:18.026Z,5.00
2022-10-31T19:51:47.879Z,5.30
2022-10-31T19:54:14.835Z,4.90
2022-10-31T19:56:44.361Z,4.10
2022-10-31T19:59:14.384Z,4.00
2022-10-31T20:01:52.374Z,4.40
2022-10-31T20:04:20.894Z,4.30
2022-10-31T20:06:52.203Z,4.70
2022-10-31T20:09:20.989Z,5.30
2022-10-31T20:11:49.892Z,4.80
2022-10-31T20:14:20.970Z,4.30
2022-10-31T20:16:53.148Z,3.70
2022-10-31T20:19:25.380Z,4.50
2022-10-31T20:21:56.897Z,4.20
2022-10-31T20:27:25.516Z,4.60
2022-10-31T20:29:56.184Z,4.20
2022-10-31T20:32:25.079Z,5.00
2022-10-31T20:34:58.832Z,3.60
2022-10-31T20:37:27.623Z,4.10
2022-10-31T20:39:56.576Z,4.10
2022-10-31T20:42:29.903Z,4.00
2022-10-31T20:45:00.707Z,3.90
2022-10-31T20:47:30.530Z,4.30
2022-10-31T20:50:08.856Z,4.80
2022-10-31T20:52:38.954Z,4.50
2022-10-31T20:55:10.075Z,4.00
2022-10-31T20:57:39.306Z,4.00
2022-10-31T21:00:14.874Z,4.10
2022-10-31T21:02:57.313Z,4.10
2022-10-31T21:05:26.848Z,4.20
2022-10-31T21:07:55.787Z,4.00
2022-10-31T21:10:34.833Z,4.00
2022-10-31T21:13:09.266Z,4.00
2022-10-31T21:15:37.530Z,3.70
2022-10-31T21:18:24.969Z,4.30
2022-10-31T21:20:56.366Z,3.70
2022-10-31T21:23:24.591Z,3.80
2022-10-31T21:25:53.437Z,4.00
2022-10-31T21:28:22.822Z,4.00
2022-10-31T21:30:52.477Z,4.20
2022-10-31T21:33:20.710Z,4.20
2022-10-31T21:38:37.970Z,3.90
2022-10-31T21:41:11.450Z,3.30
2022-10-31T21:43:55.672Z,3.10
2022-10-31T21:46:35.501Z,3.70
2022-10-31T21:49:08.633Z,3.20
2022-10-31T21:51:39.557Z,3.90
2022-10-31T21:54:26.362Z,3.80
2022-10-31T21:56:57.591Z,3.90
2022-10-31T21:59:25.659Z,4.00
2022-10-31T22:01:54.361Z,3.10
2022-10-31T22:04:21.790Z,3.30
2022-10-31T22:06:58.738Z,4.00
2022-10-31T22:09:26.810Z,3.80
2022-10-31T22:11:57.860Z,3.60
2022-10-31T22:14:34.023Z,4.10
2022-10-31T22:17:12.613Z,4.00
2022-10-31T22:19:54.346Z,3.90
2022-10-31T22:22:32.979Z,3.90
2022-10-31T22:25:16.025Z,3.70
2022-10-31T22:27:51.268Z,3.50
2022-10-31T22:30:35.121Z,3.50
2022-10-31T22:33:02.416Z,3.80
2022-10-31T22:35:30.840Z,3.50
2022-10-31T22:38:00.783Z,4.00
2022-10-31T22:40:31.328Z,3.90
2022-10-31T22:42:59.892Z,3.70
2022-10-31T22:45:34.157Z,3.90
2022-10-31T22:48:24.546Z,3.20
2022-10-31T22:50:57.046Z,3.20
2022-10-31T22:53:28.068Z,3.40
2022-10-31T22:55:58.939Z,3.30
2022-10-31T22:58:34.773Z,3.40
2022-10-31T23:01:11.139Z,3.90
2022-10-31T23:03:50.879Z,4.00
2022-10-31T23:06:34.486Z,4.20
2022-10-31T23:09:07.380Z,3.60
2022-10-31T23:11:42.064Z,3.30
2022-10-31T23:14:14.708Z,3.30
2022-10-31T23:16:53.791Z,3.50
2022-10-31T23:19:25.375Z,2.70
2022-10-31T23:22:02.949Z,3.30
2022-10-31T23:24:45.774Z,3.80
2022-10-31T23:27:23.676Z,3.50
2022-10-31T23:29:58.538Z,3.70
2022-10-31T23:32:45.283Z,3.80
2022-10-31T23:35:18.444Z,3.00
2022-10-31T23:37:45.786Z,3.30
2022-10-31T23:43:52.396Z,3.60
2022-10-31T23:46:12.286Z,3.70
2022-10-31T23:48:48.136Z,3.40
2022-10-31T23:51:22.396Z,3.60
2022-10-31T23:53:59.671Z,3.70
2022-10-31T23:56:29.686Z,3.80
2022-10-31T23:59:09.457Z,3.70
